createdAt,value
2018-09-14T00:03:59.482Z,16.60
2018-09-14T00:08:53.672Z,16.60
2018-09-14T00:13:49.219Z,16.60
2018-09-14T00:18:46.081Z,16.60
2018-09-14T00:23:40.597Z,16.60
2018-09-14T00:28:34.514Z,16.50
2018-09-14T00:33:36.860Z,16.50
2018-09-14T00:38:39.255Z,16.50
2018-09-14T00:43:40.738Z,16.50
2018-09-14T00:48:42.913Z,16.50
2018-09-14T00:53:44.149Z,16.60
2018-09-14T00:58:38.581Z,16.60
2018-09-14T01:03:32.990Z,16.60
2018-09-14T01:08:27.770Z,16.60
2018-09-14T01:13:21.866Z,16.50
2018-09-14T01:18:23.112Z,16.50
2018-09-14T01:23:39.569Z,16.60
2018-09-14T01:28:34.202Z,16.60
2018-09-14T01:33:29.036Z,16.60
2018-09-14T01:38:23.907Z,16.60
2018-09-14T01:43:18.054Z,16.50
2018-09-14T01:48:13.834Z,16.40
2018-09-14T01:53:10.177Z,16.40
2018-09-14T01:58:06.887Z,16.50
2018-09-14T02:03:01.845Z,16.50
2018-09-14T02:08:03.341Z,16.50
2018-09-14T02:13:05.835Z,16.40
2018-09-14T02:18:00.337Z,16.30
2018-09-14T02:22:54.481Z,16.40
2018-09-14T02:27:49.122Z,16.50
2018-09-14T02:32:59.038Z,16.40
2018-09-14T02:37:53.713Z,16.40
2018-09-14T02:42:55.396Z,16.40
2018-09-14T02:47:58.570Z,16.40
2018-09-14T02:52:53.264Z,16.40
2018-09-14T02:57:47.457Z,16.40
2018-09-14T03:02:42.204Z,16.50
2018-09-14T03:07:37.594Z,16.40
2018-09-14T03:12:41.366Z,16.40
2018-09-14T03:17:44.981Z,16.40
2018-09-14T03:22:47.755Z,16.30
2018-09-14T03:27:49.786Z,16.30
2018-09-14T03:32:51.982Z,16.30
2018-09-14T03:37:46.079Z,16.40
2018-09-14T03:42:56.792Z,16.40
2018-09-14T03:48:13.560Z,16.40
2018-09-14T03:53:30.763Z,16.40
2018-09-14T03:58:47.063Z,16.40
2018-09-14T04:04:02.995Z,16.40
2018-09-14T04:08:59.821Z,16.30
2018-09-14T04:13:54.085Z,16.30
2018-09-14T04:19:04.027Z,16.30
2018-09-14T04:23:59.051Z,16.30
2018-09-14T04:28:54.679Z,16.30
2018-09-14T04:33:49.807Z,16.30
2018-09-14T04:38:51.402Z,16.30
2018-09-14T04:43:46.923Z,16.30
2018-09-14T04:48:41.338Z,16.20
2018-09-14T04:53:36.451Z,16.20
2018-09-14T04:58:30.603Z,16.20
2018-09-14T05:03:34.848Z,16.10
2018-09-14T05:08:30.808Z,16.10
2018-09-14T05:13:26.582Z,16.10
2018-09-14T05:18:21.762Z,16.10
2018-09-14T05:23:19.633Z,16.10
2018-09-14T05:28:21.875Z,16.00
2018-09-14T05:33:23.857Z,16.00
2018-09-14T05:38:26.819Z,16.00
2018-09-14T05:43:22.326Z,16.00
2018-09-14T05:48:18.640Z,16.10
2018-09-14T05:53:15.146Z,16.20
2018-09-14T05:58:09.980Z,16.10
2018-09-14T06:03:06.394Z,16.00
2018-09-14T06:08:02.073Z,16.00
2018-09-14T06:13:11.214Z,16.10
2018-09-14T06:18:06.494Z,16.10
2018-09-14T06:23:01.174Z,16.10
2018-09-14T06:27:56.639Z,16.10
2018-09-14T06:32:51.494Z,16.10
2018-09-14T06:37:51.372Z,16.20
2018-09-14T06:42:47.852Z,16.20
2018-09-14T06:47:43.478Z,16.20
2018-09-14T06:52:46.853Z,16.20
2018-09-14T06:57:50.479Z,16.30
2018-09-14T07:02:52.660Z,16.30
2018-09-14T07:07:47.629Z,16.40
2018-09-14T07:12:45.904Z,16.50
2018-09-14T07:17:40.941Z,16.50
2018-09-14T07:28:36.590Z,16.50
2018-09-14T07:33:32.217Z,16.70
2018-09-14T07:38:35.341Z,16.70
2018-09-14T07:43:38.567Z,16.70
2018-09-14T07:48:37.010Z,16.70
2018-09-14T07:53:35.977Z,16.70
2018-09-14T07:58:31.209Z,16.70
2018-09-14T08:03:26.870Z,16.80
2018-09-14T08:08:20.995Z,16.70
2018-09-14T08:13:16.976Z,16.80
2018-09-14T08:18:11.204Z,16.70
2018-09-14T08:23:06.828Z,16.90
2018-09-14T08:28:02.061Z,17.00
2018-09-14T08:32:57.598Z,17.10
2018-09-14T08:37:53.647Z,17.30
2018-09-14T08:42:49.430Z,17.20
2018-09-14T08:47:46.858Z,17.20
2018-09-14T08:52:51.370Z,17.10
2018-09-14T08:57:51.740Z,17.20
2018-09-14T09:02:50.334Z,17.30
2018-09-14T09:07:45.354Z,17.20
2018-09-14T09:12:41.876Z,17.20
2018-09-14T09:23:33.887Z,17.40
2018-09-14T09:40:17.020Z,17.60
2018-09-14T09:45:58.171Z,17.80
2018-09-14T09:50:57.627Z,17.50
2018-09-14T09:56:16.977Z,17.60
2018-09-14T10:01:16.491Z,17.70
2018-09-14T10:06:16.227Z,18.00
2018-09-14T10:11:11.354Z,17.50
2018-09-14T10:16:09.037Z,18.50
2018-09-14T10:21:06.542Z,19.00
2018-09-14T10:26:02.064Z,19.90
2018-09-14T10:30:57.238Z,19.60
2018-09-14T10:36:00.963Z,19.60
2018-09-14T10:40:57.438Z,19.90
2018-09-14T10:45:53.739Z,19.80
2018-09-14T10:50:49.352Z,19.80
2018-09-14T10:55:44.520Z,19.90
2018-09-14T11:00:41.816Z,19.60
2018-09-14T11:05:37.194Z,19.70
2018-09-14T11:10:32.061Z,19.80
2018-09-14T11:15:30.795Z,19.20
2018-09-14T11:20:32.161Z,19.40
2018-09-14T11:25:26.926Z,20.00
2018-09-14T11:30:25.615Z,20.30
2018-09-14T11:35:20.216Z,20.10
2018-09-14T11:40:15.495Z,19.50
2018-09-14T11:45:11.562Z,19.30
2018-09-14T11:50:06.015Z,19.10
2018-09-14T11:55:01.171Z,18.40
2018-09-14T11:59:56.000Z,18.40
2018-09-14T12:04:51.161Z,18.50
2018-09-14T12:09:46.514Z,18.90
2018-09-14T12:14:40.876Z,19.00
2018-09-14T12:19:34.928Z,18.30
2018-09-14T12:24:30.785Z,19.00
2018-09-14T12:29:25.363Z,19.50
2018-09-14T12:34:20.808Z,19.20
2018-09-14T12:39:15.733Z,19.60
2018-09-14T12:44:11.502Z,19.80
2018-09-14T12:49:06.137Z,19.90
2018-09-14T12:54:00.514Z,20.10
2018-09-14T12:58:54.645Z,19.70
2018-09-14T13:03:50.654Z,19.40
2018-09-14T13:09:02.040Z,19.80
2018-09-14T13:14:11.532Z,20.00
2018-09-14T13:19:06.523Z,20.10
2018-09-14T13:24:01.873Z,20.30
2018-09-14T13:28:55.983Z,20.30
2018-09-14T13:33:50.682Z,20.40
2018-09-14T13:38:45.289Z,20.80
2018-09-14T13:43:48.221Z,21.10
2018-09-14T13:48:42.864Z,20.90
2018-09-14T13:53:38.516Z,21.10
2018-09-14T13:58:32.977Z,21.20
2018-09-14T14:03:27.022Z,20.80
2018-09-14T14:08:21.679Z,20.60
2018-09-14T14:13:15.968Z,20.70
2018-09-14T14:18:10.895Z,20.10
2018-09-14T14:23:06.989Z,19.90
2018-09-14T14:28:01.079Z,19.90
2018-09-14T14:32:55.365Z,19.90
2018-09-14T14:37:49.840Z,19.80
2018-09-14T14:42:44.440Z,19.80
2018-09-14T14:47:46.689Z,19.90
2018-09-14T14:52:41.356Z,20.20
2018-09-14T14:57:35.277Z,19.90
2018-09-14T15:02:30.293Z,19.80
2018-09-14T15:07:24.516Z,19.80
2018-09-14T15:12:25.989Z,19.50
2018-09-14T15:17:20.592Z,19.30
2018-09-14T15:22:14.519Z,19.20
2018-09-14T15:27:25.178Z,19.10
2018-09-14T15:32:19.699Z,19.00
2018-09-14T15:37:21.576Z,19.00
2018-09-14T15:42:23.851Z,19.10
2018-09-14T15:47:25.640Z,19.30
2018-09-14T15:52:27.743Z,19.20
2018-09-14T15:57:29.814Z,19.30
2018-09-14T16:02:31.992Z,19.30
2018-09-14T16:07:34.098Z,19.20
2018-09-14T16:12:36.325Z,18.90
2018-09-14T16:17:39.170Z,18.80
2018-09-14T16:22:33.906Z,18.80
2018-09-14T16:27:28.630Z,18.80
2018-09-14T16:32:26.773Z,18.90
2018-09-14T16:37:20.953Z,18.90
2018-09-14T16:42:22.842Z,18.90
2018-09-14T16:47:17.324Z,18.90
2018-09-14T16:52:11.567Z,18.80
2018-09-14T16:57:08.364Z,18.40
2018-09-14T17:02:05.997Z,18.10
2018-09-14T17:07:08.645Z,18.10
2018-09-14T17:12:04.671Z,18.20
2018-09-14T17:16:58.835Z,18.30
2018-09-14T17:21:53.077Z,18.10
2018-09-14T17:26:48.016Z,18.00
2018-09-14T17:31:49.474Z,18.00
2018-09-14T17:37:06.673Z,18.00
2018-09-14T17:42:25.148Z,17.80
2018-09-14T17:47:20.406Z,17.80
2018-09-14T17:52:15.176Z,17.70
2018-09-14T17:57:09.705Z,17.60
2018-09-14T18:02:08.227Z,17.50
2018-09-14T18:07:14.217Z,17.30
2018-09-14T18:12:09.108Z,17.20
2018-09-14T18:17:07.003Z,17.00
2018-09-14T18:22:01.853Z,16.80
2018-09-14T18:26:56.362Z,16.60
2018-09-14T18:31:52.752Z,16.50
2018-09-14T18:36:47.736Z,16.40
2018-09-14T18:41:42.686Z,16.20
2018-09-14T18:46:38.247Z,16.20
2018-09-14T18:51:40.044Z,16.00
2018-09-14T18:56:34.704Z,15.90
2018-09-14T19:01:29.028Z,15.80
2018-09-14T19:06:23.520Z,15.70
2018-09-14T19:11:18.506Z,15.60
2018-09-14T19:16:13.120Z,15.50
2018-09-14T19:21:07.302Z,15.40
2018-09-14T19:26:02.859Z,15.20
2018-09-14T19:30:57.279Z,15.20
2018-09-14T19:35:51.843Z,15.20
2018-09-14T19:40:46.797Z,15.20
2018-09-14T19:45:41.000Z,15.30
2018-09-14T19:50:37.564Z,15.40
2018-09-14T19:55:32.446Z,15.40
2018-09-14T20:00:27.084Z,15.40
2018-09-14T20:05:23.353Z,15.50
2018-09-14T20:10:17.632Z,15.50
2018-09-14T20:15:12.222Z,15.40
2018-09-14T20:20:08.220Z,15.30
2018-09-14T20:25:03.465Z,15.10
2018-09-14T20:29:57.935Z,15.00
2018-09-14T20:34:52.259Z,15.00
2018-09-14T20:39:47.329Z,15.00
2018-09-14T20:44:43.001Z,15.00
2018-09-14T20:49:37.443Z,14.90
2018-09-14T20:54:32.332Z,14.90
2018-09-14T20:59:27.263Z,14.90
2018-09-14T21:04:21.760Z,14.90
2018-09-14T21:09:16.174Z,14.90
2018-09-14T21:14:19.065Z,14.90
2018-09-14T21:19:21.138Z,14.80
2018-09-14T21:24:15.599Z,14.70
2018-09-14T21:29:11.610Z,14.70
2018-09-14T21:34:06.180Z,14.70
2018-09-14T21:39:00.527Z,14.60
2018-09-14T21:43:54.796Z,14.60
2018-09-14T21:48:49.203Z,14.60
2018-09-14T21:53:43.824Z,14.50
2018-09-14T21:58:38.527Z,14.50
2018-09-14T22:03:33.622Z,14.60
2018-09-14T22:08:27.590Z,14.60
2018-09-14T22:13:22.867Z,14.50
2018-09-14T22:18:16.931Z,14.50
2018-09-14T22:23:10.996Z,14.50
2018-09-14T22:28:05.131Z,14.50
2018-09-14T22:32:59.230Z,14.50
2018-09-14T22:37:53.562Z,14.60
2018-09-14T22:42:55.426Z,14.70
2018-09-14T22:47:50.138Z,14.70
2018-09-14T22:52:44.270Z,14.70
2018-09-14T22:57:39.225Z,14.70
2018-09-14T23:02:33.863Z,14.50
2018-09-14T23:07:35.935Z,14.60
2018-09-14T23:12:30.317Z,14.80
2018-09-14T23:17:25.648Z,14.90
2018-09-14T23:22:20.051Z,15.00
2018-09-14T23:27:14.131Z,15.00
2018-09-14T23:32:09.025Z,15.00
2018-09-14T23:37:04.400Z,15.00
2018-09-14T23:41:58.405Z,15.00
2018-09-14T23:46:53.077Z,15.00
2018-09-14T23:51:47.611Z,15.10
2018-09-14T23:56:41.853Z,15.10
